createdAt,value
2018-05-29T00:01:03.478Z,18.80
2018-05-29T00:03:36.658Z,18.80
2018-05-29T00:06:09.207Z,18.80
2018-05-29T00:08:42.368Z,18.90
2018-05-29T00:11:15.971Z,18.80
2018-05-29T00:13:48.592Z,18.80
2018-05-29T00:16:21.271Z,18.80
2018-05-29T00:18:53.666Z,18.80
2018-05-29T00:21:26.284Z,18.70
2018-05-29T00:23:58.666Z,18.60
2018-05-29T00:26:31.223Z,18.50
2018-05-29T00:29:04.628Z,18.50
2018-05-29T00:31:37.785Z,18.50
2018-05-29T00:34:10.951Z,18.40
2018-05-29T00:36:44.036Z,18.40
2018-05-29T00:39:17.298Z,18.40
2018-05-29T00:41:49.631Z,18.30
2018-05-29T00:44:22.220Z,18.40
2018-05-29T00:46:54.750Z,18.40
2018-05-29T00:49:27.233Z,18.40
2018-05-29T00:51:59.772Z,18.40
2018-05-29T00:54:32.160Z,18.40
2018-05-29T00:57:05.281Z,18.40
2018-05-29T00:59:37.867Z,18.30
2018-05-29T01:02:11.091Z,18.20
2018-05-29T01:04:44.279Z,18.10
2018-05-29T01:07:17.468Z,18.00
2018-05-29T01:09:49.907Z,18.00
2018-05-29T01:12:22.538Z,18.00
2018-05-29T01:14:55.740Z,17.90
2018-05-29T01:17:28.123Z,17.90
2018-05-29T01:20:00.537Z,17.90
2018-05-29T01:22:33.008Z,17.90
2018-05-29T01:25:05.467Z,18.00
2018-05-29T01:27:38.582Z,17.90
2018-05-29T01:30:11.348Z,17.90
2018-05-29T01:32:43.831Z,17.90
2018-05-29T01:35:16.301Z,17.90
2018-05-29T01:37:48.712Z,17.90
2018-05-29T01:40:21.133Z,17.90
2018-05-29T01:42:53.611Z,17.90
2018-05-29T01:45:26.147Z,17.90
2018-05-29T01:47:58.836Z,17.80
2018-05-29T01:50:31.261Z,17.80
2018-05-29T01:53:03.708Z,17.80
2018-05-29T01:55:36.088Z,17.80
2018-05-29T01:58:08.781Z,17.80
2018-05-29T02:00:41.242Z,17.80
2018-05-29T02:03:14.624Z,17.80
2018-05-29T02:05:46.953Z,17.80
2018-05-29T02:08:19.557Z,17.70
2018-05-29T02:10:52.076Z,17.60
2018-05-29T02:13:24.486Z,17.60
2018-05-29T02:15:57.078Z,17.50
2018-05-29T02:18:29.552Z,17.50
2018-05-29T02:21:01.924Z,17.60
2018-05-29T02:23:34.514Z,17.60
2018-05-29T02:26:07.632Z,17.50
2018-05-29T02:28:39.988Z,17.50
2018-05-29T02:31:12.406Z,17.50
2018-05-29T02:33:45.534Z,17.50
2018-05-29T02:36:18.206Z,17.50
2018-05-29T02:38:50.593Z,17.50
2018-05-29T02:41:23.797Z,17.40
2018-05-29T02:43:56.970Z,17.40
2018-05-29T02:46:29.659Z,17.40
2018-05-29T02:51:40.222Z,17.30
2018-05-29T02:54:12.611Z,17.30
2018-05-29T02:56:45.012Z,17.40
2018-05-29T02:59:18.072Z,17.40
2018-05-29T03:01:50.588Z,17.40
2018-05-29T03:04:23.794Z,17.40
2018-05-29T03:06:56.591Z,17.40
2018-05-29T03:09:29.250Z,17.50
2018-05-29T03:12:02.343Z,17.50
2018-05-29T03:14:34.849Z,17.40
2018-05-29T03:17:07.234Z,17.50
2018-05-29T03:19:39.549Z,17.40
2018-05-29T03:22:11.924Z,17.40
2018-05-29T03:24:45.831Z,17.40
2018-05-29T03:27:18.548Z,17.40
2018-05-29T03:29:50.988Z,17.40
2018-05-29T03:32:24.257Z,17.40
2018-05-29T03:34:56.833Z,17.40
2018-05-29T03:37:30.204Z,17.50
2018-05-29T03:40:03.629Z,17.60
2018-05-29T03:42:36.350Z,17.60
2018-05-29T03:45:08.777Z,17.50
2018-05-29T03:47:41.992Z,17.60
2018-05-29T03:50:15.936Z,17.50
2018-05-29T03:52:49.160Z,17.60
2018-05-29T03:55:22.269Z,17.70
2018-05-29T03:57:54.722Z,17.60
2018-05-29T04:00:27.218Z,17.70
2018-05-29T04:02:59.808Z,17.80
2018-05-29T04:05:32.242Z,17.80
2018-05-29T04:08:04.623Z,17.80
2018-05-29T04:10:37.132Z,17.90
2018-05-29T04:13:10.458Z,17.90
2018-05-29T04:15:43.661Z,18.10
2018-05-29T04:18:16.292Z,18.00
2018-05-29T04:20:48.743Z,18.20
2018-05-29T04:23:21.538Z,18.20
2018-05-29T04:25:54.023Z,18.30
2018-05-29T04:28:27.123Z,18.40
2018-05-29T04:30:59.419Z,18.40
2018-05-29T04:33:32.064Z,18.40
2018-05-29T04:36:04.637Z,18.50
2018-05-29T04:38:37.785Z,18.60
2018-05-29T04:41:10.999Z,18.60
2018-05-29T04:43:43.572Z,18.60
2018-05-29T04:46:16.171Z,18.70
2018-05-29T04:48:49.342Z,18.90
2018-05-29T04:51:21.924Z,18.80
2018-05-29T04:53:55.827Z,19.00
2018-05-29T04:56:29.038Z,19.10
2018-05-29T04:59:01.729Z,19.10
2018-05-29T05:01:34.412Z,19.20
2018-05-29T05:04:07.750Z,19.30
2018-05-29T05:06:44.077Z,19.40
2018-05-29T05:09:16.709Z,19.50
2018-05-29T05:11:49.219Z,19.60
2018-05-29T05:14:21.823Z,19.70
2018-05-29T05:16:54.448Z,19.80
2018-05-29T05:19:27.587Z,19.90
2018-05-29T05:22:00.044Z,19.90
2018-05-29T05:24:32.469Z,19.90
2018-05-29T05:27:05.791Z,20.10
2018-05-29T05:29:38.465Z,20.10
2018-05-29T05:32:10.990Z,20.30
2018-05-29T05:34:43.679Z,20.40
2018-05-29T05:37:16.152Z,20.50
2018-05-29T05:39:48.732Z,20.60
2018-05-29T05:42:25.516Z,20.70
2018-05-29T05:44:57.869Z,20.80
2018-05-29T05:47:30.604Z,20.90
2018-05-29T05:50:03.915Z,21.10
2018-05-29T05:52:36.493Z,21.10
2018-05-29T05:55:09.148Z,21.20
2018-05-29T05:57:41.809Z,21.30
2018-05-29T06:00:14.258Z,21.40
2018-05-29T06:02:46.689Z,21.50
2018-05-29T06:05:19.328Z,21.60
2018-05-29T06:07:52.032Z,21.70
2018-05-29T06:10:25.163Z,21.90
2018-05-29T06:12:58.405Z,22.00
2018-05-29T06:15:31.603Z,22.10
2018-05-29T06:18:04.024Z,22.10
2018-05-29T06:20:36.538Z,22.30
2018-05-29T06:23:09.105Z,22.40
2018-05-29T06:25:41.474Z,22.50
2018-05-29T06:28:13.892Z,22.60
2018-05-29T06:30:46.269Z,22.80
2018-05-29T06:33:18.746Z,22.90
2018-05-29T06:35:51.362Z,23.00
2018-05-29T06:38:23.763Z,23.20
2018-05-29T06:41:00.568Z,23.50
2018-05-29T06:43:33.179Z,23.40
2018-05-29T06:46:06.488Z,23.70
2018-05-29T06:48:38.893Z,23.70
2018-05-29T06:51:11.369Z,23.80
2018-05-29T06:53:43.861Z,23.90
2018-05-29T06:56:16.514Z,24.10
2018-05-29T06:58:49.671Z,24.30
2018-05-29T07:01:22.332Z,24.20
2018-05-29T07:03:55.092Z,24.40
2018-05-29T07:06:27.382Z,24.50
2018-05-29T07:08:59.850Z,24.60
2018-05-29T07:11:32.845Z,24.60
2018-05-29T07:14:05.403Z,24.70
2018-05-29T07:16:38.466Z,24.90
2018-05-29T07:19:11.016Z,24.80
2018-05-29T07:21:43.442Z,25.00
2018-05-29T07:24:15.808Z,25.00
2018-05-29T07:26:49.185Z,25.20
2018-05-29T07:29:21.863Z,25.20
2018-05-29T07:31:54.384Z,25.20
2018-05-29T07:34:26.842Z,25.30
2018-05-29T07:36:59.352Z,25.40
2018-05-29T07:39:31.856Z,25.50
2018-05-29T07:42:04.564Z,25.50
2018-05-29T07:44:37.004Z,25.60
2018-05-29T07:47:09.549Z,25.70
2018-05-29T07:49:41.994Z,25.90
2018-05-29T07:52:14.484Z,25.90
2018-05-29T07:54:47.137Z,26.00
2018-05-29T07:57:19.797Z,26.00
2018-05-29T07:59:52.987Z,26.10
2018-05-29T08:02:25.470Z,26.10
2018-05-29T08:04:58.030Z,26.20
2018-05-29T08:07:30.364Z,26.20
2018-05-29T08:10:03.742Z,26.30
2018-05-29T08:12:39.585Z,26.30
2018-05-29T08:15:12.202Z,26.30
2018-05-29T08:17:44.714Z,26.30
2018-05-29T08:20:18.666Z,26.40
2018-05-29T08:22:51.068Z,26.30
2018-05-29T08:25:23.424Z,26.50
2018-05-29T08:27:55.962Z,26.60
2018-05-29T08:30:28.473Z,26.70
2018-05-29T08:33:01.712Z,26.90
2018-05-29T08:35:34.054Z,26.80
2018-05-29T08:40:46.523Z,27.00
2018-05-29T08:43:23.485Z,27.10
2018-05-29T08:45:55.943Z,27.10
2018-05-29T08:48:28.339Z,27.20
2018-05-29T08:51:01.698Z,27.30
2018-05-29T08:53:34.310Z,27.30
2018-05-29T08:56:07.431Z,27.40
2018-05-29T08:58:40.682Z,27.50
2018-05-29T09:01:13.965Z,27.60
2018-05-29T09:03:46.398Z,27.60
2018-05-29T09:06:19.018Z,27.70
2018-05-29T09:08:51.444Z,27.70
2018-05-29T09:11:23.847Z,27.90
2018-05-29T09:13:56.491Z,28.00
2018-05-29T09:16:29.090Z,28.00
2018-05-29T09:19:01.459Z,28.10
2018-05-29T09:21:34.069Z,28.20
2018-05-29T09:24:06.509Z,28.30
2018-05-29T09:26:40.630Z,28.40
2018-05-29T09:29:13.194Z,28.40
2018-05-29T09:31:45.735Z,28.50
2018-05-29T09:34:18.321Z,28.50
2018-05-29T09:36:50.684Z,28.60
2018-05-29T09:39:23.851Z,28.70
2018-05-29T09:41:57.069Z,28.80
2018-05-29T09:44:30.238Z,28.90
2018-05-29T09:47:03.380Z,29.00
2018-05-29T09:49:36.668Z,29.10
2018-05-29T09:52:09.939Z,29.10
2018-05-29T09:54:43.239Z,29.20
2018-05-29T09:57:16.500Z,29.30
2018-05-29T09:59:49.702Z,29.20
2018-05-29T10:02:22.245Z,29.20
2018-05-29T10:04:54.687Z,29.30
2018-05-29T10:07:27.164Z,29.40
2018-05-29T10:09:59.839Z,29.40
2018-05-29T10:12:32.404Z,29.40
2018-05-29T10:15:05.217Z,29.50
2018-05-29T10:17:37.797Z,29.50
2018-05-29T10:20:10.368Z,29.60
2018-05-29T10:22:42.883Z,29.60
2018-05-29T10:25:18.823Z,29.80
2018-05-29T10:27:51.433Z,29.80
2018-05-29T10:30:31.163Z,29.90
2018-05-29T10:33:03.928Z,30.00
2018-05-29T10:35:36.439Z,30.00
2018-05-29T10:38:09.163Z,30.00
2018-05-29T10:40:41.842Z,30.10
2018-05-29T10:43:14.498Z,30.20
2018-05-29T10:45:47.514Z,30.20
2018-05-29T10:48:20.774Z,30.10
2018-05-29T10:50:53.964Z,30.20
2018-05-29T10:53:30.369Z,30.30
2018-05-29T10:56:03.584Z,30.40
2018-05-29T10:58:36.809Z,30.40
2018-05-29T11:01:09.188Z,30.40
2018-05-29T11:03:42.453Z,30.40
2018-05-29T11:06:14.853Z,30.40
2018-05-29T11:08:47.789Z,30.50
2018-05-29T11:11:20.416Z,30.60
2018-05-29T11:13:52.809Z,30.60
2018-05-29T11:16:25.424Z,30.70
2018-05-29T11:18:58.124Z,30.70
2018-05-29T11:21:30.518Z,30.80
2018-05-29T11:24:03.203Z,30.90
2018-05-29T11:26:35.580Z,31.00
2018-05-29T11:29:08.724Z,31.20
2018-05-29T11:31:42.099Z,31.20
2018-05-29T11:34:14.569Z,31.20
2018-05-29T11:36:47.090Z,31.10
2018-05-29T11:39:19.561Z,31.00
2018-05-29T11:41:52.787Z,31.00
2018-05-29T11:44:26.636Z,31.00
2018-05-29T11:46:59.847Z,31.10
2018-05-29T11:49:32.281Z,31.10
2018-05-29T11:52:04.908Z,31.10
2018-05-29T11:54:37.545Z,31.20
2018-05-29T11:57:10.188Z,31.20
2018-05-29T11:59:42.593Z,31.20
2018-05-29T12:02:15.011Z,31.20
2018-05-29T12:04:49.188Z,31.20
2018-05-29T12:07:21.607Z,31.20
2018-05-29T12:09:54.194Z,31.30
2018-05-29T12:12:26.924Z,31.10
2018-05-29T12:14:59.506Z,30.90
2018-05-29T12:17:32.093Z,30.80
2018-05-29T12:20:05.394Z,30.90
2018-05-29T12:22:38.946Z,31.10
2018-05-29T12:25:11.568Z,31.10
2018-05-29T12:27:44.203Z,31.10
2018-05-29T12:30:16.949Z,31.00
2018-05-29T12:32:49.434Z,31.10
2018-05-29T12:35:22.208Z,31.40
2018-05-29T12:37:55.605Z,31.90
2018-05-29T12:40:28.886Z,32.00
2018-05-29T12:43:01.316Z,32.00
2018-05-29T12:45:34.009Z,32.00
2018-05-29T12:48:06.610Z,32.00
2018-05-29T12:50:39.381Z,32.10
2018-05-29T12:53:12.020Z,32.30
2018-05-29T12:55:44.578Z,32.70
2018-05-29T12:58:17.759Z,33.70
2018-05-29T13:00:50.411Z,33.70
2018-05-29T13:03:23.702Z,35.30
2018-05-29T13:05:57.295Z,35.90
2018-05-29T13:08:29.756Z,35.80
2018-05-29T13:11:02.425Z,36.60
2018-05-29T13:13:35.074Z,36.80
2018-05-29T13:16:14.580Z,37.10
2018-05-29T13:18:47.159Z,36.90
2018-05-29T13:21:19.891Z,36.50
2018-05-29T13:23:52.464Z,35.70
2018-05-29T13:26:25.176Z,35.10
2018-05-29T13:28:57.833Z,34.90
2018-05-29T13:31:31.030Z,34.00
2018-05-29T13:34:03.529Z,34.00
2018-05-29T13:36:35.996Z,33.70
2018-05-29T13:39:08.692Z,33.50
2018-05-29T13:41:41.403Z,33.40
2018-05-29T13:44:13.998Z,33.30
2018-05-29T13:46:46.545Z,33.30
2018-05-29T13:49:19.214Z,33.00
2018-05-29T13:51:52.369Z,32.40
2018-05-29T13:54:25.058Z,32.30
2018-05-29T13:56:57.894Z,32.00
2018-05-29T13:59:31.267Z,31.80
2018-05-29T14:02:03.880Z,31.80
2018-05-29T14:04:37.198Z,32.50
2018-05-29T14:07:10.671Z,32.50
2018-05-29T14:09:43.249Z,32.50
2018-05-29T14:12:15.750Z,32.60
2018-05-29T14:14:48.499Z,32.60
2018-05-29T14:17:21.038Z,32.60
2018-05-29T14:19:54.244Z,32.70
2018-05-29T14:22:26.727Z,32.70
2018-05-29T14:25:00.329Z,32.70
2018-05-29T14:27:32.836Z,32.70
2018-05-29T14:30:05.714Z,32.80
2018-05-29T14:32:38.233Z,32.70
2018-05-29T14:35:10.894Z,32.70
2018-05-29T14:37:43.414Z,32.60
2018-05-29T14:40:16.129Z,32.50
2018-05-29T14:42:48.775Z,32.50
2018-05-29T14:45:21.319Z,32.30
2018-05-29T14:47:53.793Z,32.20
2018-05-29T14:50:27.261Z,31.80
2018-05-29T14:52:59.809Z,31.80
2018-05-29T14:55:32.483Z,31.70
2018-05-29T14:58:05.160Z,31.50
2018-05-29T15:00:38.442Z,31.30
2018-05-29T15:03:11.010Z,31.20
2018-05-29T15:05:43.818Z,31.20
2018-05-29T15:08:16.400Z,31.10
2018-05-29T15:10:49.171Z,31.00
2018-05-29T15:13:21.789Z,31.00
2018-05-29T15:15:59.598Z,31.00
2018-05-29T15:18:32.099Z,31.00
2018-05-29T15:21:05.381Z,30.90
2018-05-29T15:23:37.986Z,30.80
2018-05-29T15:26:10.456Z,30.20
2018-05-29T15:28:43.175Z,29.50
2018-05-29T15:31:15.575Z,28.90
2018-05-29T15:33:48.801Z,27.70
2018-05-29T15:36:22.188Z,27.10
2018-05-29T15:38:54.752Z,27.00
2018-05-29T15:41:28.009Z,25.80
2018-05-29T15:44:01.269Z,25.30
2018-05-29T15:46:33.776Z,25.20
2018-05-29T15:49:07.293Z,24.40
2018-05-29T15:51:40.428Z,24.00
2018-05-29T15:54:13.615Z,23.60
2018-05-29T15:56:46.122Z,23.50
2018-05-29T15:59:18.670Z,23.20
2018-05-29T16:01:51.085Z,22.90
2018-05-29T16:04:23.457Z,22.60
2018-05-29T16:06:56.619Z,21.90
2018-05-29T16:09:29.814Z,21.80
2018-05-29T16:12:03.111Z,21.70
2018-05-29T16:14:35.696Z,21.70
2018-05-29T16:17:08.879Z,21.50
2018-05-29T16:19:41.510Z,21.50
2018-05-29T16:22:14.023Z,21.40
2018-05-29T16:24:46.671Z,21.20
2018-05-29T16:27:19.148Z,21.10
2018-05-29T16:29:52.275Z,21.00
2018-05-29T16:32:24.938Z,21.00
2018-05-29T16:34:57.678Z,20.90
2018-05-29T16:37:30.136Z,20.90
2018-05-29T16:40:02.665Z,21.00
2018-05-29T16:42:35.377Z,21.00
2018-05-29T16:45:07.840Z,21.10
2018-05-29T16:47:41.283Z,21.20
2018-05-29T16:50:14.175Z,21.20
2018-05-29T16:52:46.980Z,21.10
2018-05-29T16:55:19.749Z,20.90
2018-05-29T16:57:52.484Z,20.90
2018-05-29T17:00:25.040Z,20.90
2018-05-29T17:02:57.612Z,20.70
2018-05-29T17:05:30.000Z,20.70
2018-05-29T17:08:02.711Z,20.70
2018-05-29T17:10:36.096Z,20.70
2018-05-29T17:13:09.348Z,20.80
2018-05-29T17:15:41.945Z,20.80
2018-05-29T17:18:14.449Z,20.90
2018-05-29T17:20:47.156Z,20.90
2018-05-29T17:23:25.631Z,20.70
2018-05-29T17:25:58.198Z,20.70
2018-05-29T17:28:30.765Z,20.70
2018-05-29T17:31:03.315Z,20.60
2018-05-29T17:33:36.074Z,20.60
2018-05-29T17:36:08.577Z,20.60
2018-05-29T17:38:41.274Z,20.70
2018-05-29T17:41:14.412Z,20.70
2018-05-29T17:43:47.313Z,20.80
2018-05-29T17:46:19.971Z,20.90
2018-05-29T17:48:52.857Z,20.90
2018-05-29T17:51:25.805Z,21.00
2018-05-29T17:53:58.791Z,20.90
2018-05-29T17:56:32.488Z,20.90
2018-05-29T17:59:05.377Z,20.90
2018-05-29T18:01:37.855Z,21.00
2018-05-29T18:04:10.936Z,21.00
2018-05-29T18:06:43.696Z,20.90
2018-05-29T18:09:16.382Z,20.90
2018-05-29T18:11:49.285Z,20.80
2018-05-29T18:14:21.844Z,20.80
2018-05-29T18:16:54.504Z,20.80
2018-05-29T18:19:28.021Z,20.70
2018-05-29T18:22:01.950Z,20.80
2018-05-29T18:24:35.168Z,20.80
2018-05-29T18:27:08.765Z,20.80
2018-05-29T18:29:41.306Z,20.80
2018-05-29T18:32:16.148Z,20.80
2018-05-29T18:34:49.309Z,20.80
2018-05-29T18:37:22.633Z,20.80
2018-05-29T18:39:55.299Z,20.80
2018-05-29T18:42:27.926Z,20.80
2018-05-29T18:45:00.585Z,20.80
2018-05-29T18:47:33.136Z,20.80
2018-05-29T18:50:05.837Z,20.80
2018-05-29T18:52:39.927Z,20.80
2018-05-29T18:55:12.642Z,20.70
2018-05-29T18:57:45.370Z,20.80
2018-05-29T19:00:18.040Z,20.70
2018-05-29T19:02:50.464Z,20.60
2018-05-29T19:05:22.862Z,20.60
2018-05-29T19:07:55.315Z,20.60
2018-05-29T19:10:27.969Z,20.60
2018-05-29T19:13:00.672Z,20.60
2018-05-29T19:15:33.301Z,20.50
2018-05-29T19:18:06.047Z,20.40
2018-05-29T19:20:38.728Z,20.40
2018-05-29T19:23:11.327Z,20.40
2018-05-29T19:25:44.091Z,20.40
2018-05-29T19:28:17.366Z,20.40
2018-05-29T19:30:50.046Z,20.40
2018-05-29T19:33:23.230Z,20.40
2018-05-29T19:35:55.691Z,20.40
2018-05-29T19:38:29.123Z,20.30
2018-05-29T19:41:02.361Z,20.30
2018-05-29T19:43:34.942Z,20.20
2018-05-29T19:46:07.777Z,20.20
2018-05-29T19:48:40.369Z,20.10
2018-05-29T19:51:13.625Z,20.20
2018-05-29T19:53:46.207Z,20.20
2018-05-29T19:56:19.381Z,20.20
2018-05-29T19:58:52.102Z,20.20
2018-05-29T20:01:24.854Z,20.20
2018-05-29T20:03:57.569Z,20.20
2018-05-29T20:06:30.122Z,20.20
2018-05-29T20:09:04.363Z,20.10
2018-05-29T20:11:37.131Z,20.10
2018-05-29T20:14:09.584Z,20.00
2018-05-29T20:16:42.579Z,20.00
2018-05-29T20:19:15.091Z,20.00
2018-05-29T20:21:47.698Z,19.90
2018-05-29T20:24:20.320Z,19.90
2018-05-29T20:26:52.954Z,19.80
2018-05-29T20:29:25.479Z,19.80
2018-05-29T20:31:58.089Z,19.80
2018-05-29T20:34:31.198Z,19.80
2018-05-29T20:37:03.864Z,19.80
2018-05-29T20:39:36.623Z,19.70
2018-05-29T20:42:09.370Z,19.70
2018-05-29T20:44:42.160Z,19.70
2018-05-29T20:47:14.734Z,19.70
2018-05-29T20:49:48.394Z,19.80
2018-05-29T20:52:21.155Z,19.70
2018-05-29T20:54:53.788Z,19.80
2018-05-29T20:57:26.423Z,19.80
2018-05-29T20:59:58.979Z,19.80
2018-05-29T21:02:31.773Z,19.80
2018-05-29T21:05:04.340Z,19.90
2018-05-29T21:07:37.042Z,19.90
2018-05-29T21:10:09.593Z,19.90
2018-05-29T21:12:42.293Z,19.90
2018-05-29T21:15:14.927Z,19.90
2018-05-29T21:17:47.567Z,19.90
2018-05-29T21:20:20.223Z,20.00
2018-05-29T21:22:53.961Z,20.10
2018-05-29T21:25:27.284Z,20.10
2018-05-29T21:28:00.016Z,20.10
2018-05-29T21:30:32.632Z,20.10
2018-05-29T21:33:05.303Z,20.10
2018-05-29T21:35:38.409Z,20.10
2018-05-29T21:38:11.607Z,20.00
2018-05-29T21:40:44.816Z,20.00
2018-05-29T21:43:17.290Z,20.00
2018-05-29T21:45:50.784Z,20.00
2018-05-29T21:48:23.235Z,19.90
2018-05-29T21:50:56.110Z,19.90
2018-05-29T21:53:28.510Z,19.90
2018-05-29T21:56:00.956Z,19.90
2018-05-29T21:58:33.394Z,19.80
2018-05-29T22:01:06.129Z,19.70
2018-05-29T22:03:39.476Z,19.60
2018-05-29T22:06:12.051Z,19.60
2018-05-29T22:08:44.646Z,19.60
2018-05-29T22:11:17.335Z,19.60
2018-05-29T22:13:49.938Z,19.60
2018-05-29T22:16:23.151Z,19.50
2018-05-29T22:18:56.256Z,19.50
2018-05-29T22:21:29.155Z,19.50
2018-05-29T22:24:01.655Z,19.50
2018-05-29T22:26:34.195Z,19.40
2018-05-29T22:29:06.826Z,19.40
2018-05-29T22:31:39.340Z,19.40
2018-05-29T22:34:11.800Z,19.30
2018-05-29T22:36:51.095Z,19.30
2018-05-29T22:39:23.643Z,19.30
2018-05-29T22:41:56.271Z,19.20
2018-05-29T22:44:28.687Z,19.20
2018-05-29T22:47:01.426Z,19.20
2018-05-29T22:49:34.083Z,19.20
2018-05-29T22:52:06.811Z,19.10
2018-05-29T22:54:39.549Z,19.10
2018-05-29T22:57:12.518Z,19.00
2018-05-29T22:59:45.101Z,19.00
2018-05-29T23:02:18.050Z,18.90
2018-05-29T23:04:51.568Z,18.80
2018-05-29T23:07:24.274Z,18.80
2018-05-29T23:09:56.774Z,18.80
2018-05-29T23:12:29.470Z,18.80
2018-05-29T23:15:02.127Z,18.80
2018-05-29T23:17:42.071Z,18.80
2018-05-29T23:20:15.008Z,18.90
2018-05-29T23:22:47.828Z,18.90
2018-05-29T23:25:21.297Z,19.00
2018-05-29T23:30:33.361Z,19.00
2018-05-29T23:33:06.159Z,19.00
2018-05-29T23:35:39.379Z,19.00
2018-05-29T23:38:11.891Z,19.00
2018-05-29T23:40:45.199Z,19.00
2018-05-29T23:43:17.769Z,19.00
2018-05-29T23:45:50.569Z,19.00
2018-05-29T23:48:23.332Z,19.00
2018-05-29T23:50:56.660Z,19.00
2018-05-29T23:53:29.013Z,19.00
2018-05-29T23:56:02.332Z,19.00
2018-05-29T23:58:34.775Z,18.90
